sensor_id;sensor_type;location;lat;lon;timestamp;temperature;humidity
10722;DHT22;5412;59.450;18.124;2023-03-23T00:02:30;7.70;99.90
10722;DHT22;5412;59.450;18.124;2023-03-23T00:05:02;7.50;99.90
10722;DHT22;5412;59.450;18.124;2023-03-23T00:07:29;7.60;99.90
10722;DHT22;5412;59.450;18.124;2023-03-23T00:09:55;7.50;99.90
10722;DHT22;5412;59.450;18.124;2023-03-23T00:12:26;7.40;99.90
10722;DHT22;5412;59.450;18.124;2023-03-23T00:15:02;7.30;99.90
10722;DHT22;5412;59.450;18.124;2023-03-23T00:17:29;7.30;99.90
10722;DHT22;5412;59.450;18.124;2023-03-23T00:19:55;7.20;99.90
10722;DHT22;5412;59.450;18.124;2023-03-23T00:22:22;7.20;99.90
10722;DHT22;5412;59.450;18.124;2023-03-23T00:24:51;7.20;99.90
10722;DHT22;5412;59.450;18.124;2023-03-23T00:27:17;7.20;99.90
10722;DHT22;5412;59.450;18.124;2023-03-23T00:29:43;7.20;99.90
10722;DHT22;5412;59.450;18.124;2023-03-23T00:32:11;7.10;99.90
10722;DHT22;5412;59.450;18.124;2023-03-23T00:34:42;7.10;99.90
10722;DHT22;5412;59.450;18.124;2023-03-23T00:37:10;7.20;99.90
10722;DHT22;5412;59.450;18.124;2023-03-23T00:39:37;7.00;99.90
10722;DHT22;5412;59.450;18.124;2023-03-23T00:42:04;7.00;99.90
10722;DHT22;5412;59.450;18.124;2023-03-23T00:44:31;7.00;99.90
10722;DHT22;5412;59.450;18.124;2023-03-23T00:46:59;6.90;99.90
10722;DHT22;5412;59.450;18.124;2023-03-23T00:49:25;7.00;99.90
10722;DHT22;5412;59.450;18.124;2023-03-23T00:51:56;6.90;99.90
10722;DHT22;5412;59.450;18.124;2023-03-23T00:54:23;6.90;99.90
10722;DHT22;5412;59.450;18.124;2023-03-23T00:56:49;6.90;99.90
10722;DHT22;5412;59.450;18.124;2023-03-23T00:59:15;6.90;99.90
10722;DHT22;5412;59.450;18.124;2023-03-23T01:01:42;6.90;99.90
10722;DHT22;5412;59.450;18.124;2023-03-23T01:04:08;6.80;99.90
10722;DHT22;5412;59.450;18.124;2023-03-23T01:06:36;6.80;99.90
10722;DHT22;5412;59.450;18.124;2023-03-23T01:09:08;6.80;99.90
10722;DHT22;5412;59.450;18.124;2023-03-23T01:11:35;6.80;99.90
10722;DHT22;5412;59.450;18.124;2023-03-23T01:14:00;6.90;99.90
10722;DHT22;5412;59.450;18.124;2023-03-23T01:16:27;6.80;99.90
10722;DHT22;5412;59.450;18.124;2023-03-23T01:18:53;6.70;99.90
10722;DHT22;5412;59.450;18.124;2023-03-23T01:21:20;6.70;99.90
10722;DHT22;5412;59.450;18.124;2023-03-23T01:23:46;6.70;99.90
10722;DHT22;5412;59.450;18.124;2023-03-23T01:26:15;6.70;99.90
10722;DHT22;5412;59.450;18.124;2023-03-23T01:28:42;6.70;99.90
10722;DHT22;5412;59.450;18.124;2023-03-23T01:31:10;6.60;99.90
10722;DHT22;5412;59.450;18.124;2023-03-23T01:33:38;6.60;99.90
10722;DHT22;5412;59.450;18.124;2023-03-23T01:36:06;6.60;99.90
10722;DHT22;5412;59.450;18.124;2023-03-23T01:38:34;6.60;99.90
10722;DHT22;5412;59.450;18.124;2023-03-23T01:41:00;6.60;99.90
10722;DHT22;5412;59.450;18.124;2023-03-23T01:43:26;6.60;99.90
10722;DHT22;5412;59.450;18.124;2023-03-23T01:45:52;6.50;99.90
10722;DHT22;5412;59.450;18.124;2023-03-23T01:50:55;6.40;99.90
10722;DHT22;5412;59.450;18.124;2023-03-23T01:53:26;6.30;99.90
10722;DHT22;5412;59.450;18.124;2023-03-23T01:55:54;6.30;99.90
10722;DHT22;5412;59.450;18.124;2023-03-23T01:58:25;6.30;99.90
10722;DHT22;5412;59.450;18.124;2023-03-23T02:00:54;6.30;99.90
10722;DHT22;5412;59.450;18.124;2023-03-23T02:03:21;6.20;99.90
10722;DHT22;5412;59.450;18.124;2023-03-23T02:05:49;6.20;99.90
10722;DHT22;5412;59.450;18.124;2023-03-23T02:08:17;6.20;99.90
10722;DHT22;5412;59.450;18.124;2023-03-23T02:10:43;6.20;99.90
10722;DHT22;5412;59.450;18.124;2023-03-23T02:13:10;6.20;99.90
10722;DHT22;5412;59.450;18.124;2023-03-23T02:18:12;6.10;99.90
10722;DHT22;5412;59.450;18.124;2023-03-23T02:27:00;6.00;99.90
10722;DHT22;5412;59.450;18.124;2023-03-23T02:35:10;6.00;99.90
10722;DHT22;5412;59.450;18.124;2023-03-23T02:38:07;6.00;99.90
10722;DHT22;5412;59.450;18.124;2023-03-23T02:40:45;5.90;99.90
10722;DHT22;5412;59.450;18.124;2023-03-23T02:43:20;5.80;99.90
10722;DHT22;5412;59.450;18.124;2023-03-23T02:45:47;5.80;99.90
10722;DHT22;5412;59.450;18.124;2023-03-23T02:48:15;5.80;99.90
10722;DHT22;5412;59.450;18.124;2023-03-23T02:50:44;5.80;99.90
10722;DHT22;5412;59.450;18.124;2023-03-23T02:53:13;5.90;99.90
10722;DHT22;5412;59.450;18.124;2023-03-23T02:55:43;5.90;99.90
10722;DHT22;5412;59.450;18.124;2023-03-23T02:58:10;5.80;99.90
10722;DHT22;5412;59.450;18.124;2023-03-23T03:00:37;5.80;99.90
10722;DHT22;5412;59.450;18.124;2023-03-23T03:03:04;5.80;99.90
10722;DHT22;5412;59.450;18.124;2023-03-23T03:08:50;5.90;99.90
10722;DHT22;5412;59.450;18.124;2023-03-23T03:11:19;5.90;99.90
10722;DHT22;5412;59.450;18.124;2023-03-23T03:14:13;5.80;99.90
10722;DHT22;5412;59.450;18.124;2023-03-23T03:16:51;5.90;99.90
10722;DHT22;5412;59.450;18.124;2023-03-23T03:21:47;5.80;99.90
10722;DHT22;5412;59.450;18.124;2023-03-23T03:24:18;5.80;99.90
10722;DHT22;5412;59.450;18.124;2023-03-23T03:26:47;5.70;99.90
10722;DHT22;5412;59.450;18.124;2023-03-23T03:29:20;5.60;99.90
10722;DHT22;5412;59.450;18.124;2023-03-23T03:31:49;5.70;99.90
10722;DHT22;5412;59.450;18.124;2023-03-23T03:34:16;5.80;99.90
10722;DHT22;5412;59.450;18.124;2023-03-23T03:36:44;5.90;99.90
10722;DHT22;5412;59.450;18.124;2023-03-23T03:39:12;5.80;99.90
10722;DHT22;5412;59.450;18.124;2023-03-23T03:41:41;5.80;99.90
10722;DHT22;5412;59.450;18.124;2023-03-23T03:44:07;5.80;99.90
10722;DHT22;5412;59.450;18.124;2023-03-23T03:46:34;5.70;99.90
10722;DHT22;5412;59.450;18.124;2023-03-23T03:49:02;5.70;99.90
10722;DHT22;5412;59.450;18.124;2023-03-23T03:51:29;5.80;99.90
10722;DHT22;5412;59.450;18.124;2023-03-23T03:53:55;5.80;99.90
10722;DHT22;5412;59.450;18.124;2023-03-23T03:56:22;5.90;99.90
10722;DHT22;5412;59.450;18.124;2023-03-23T03:58:49;5.80;99.90
10722;DHT22;5412;59.450;18.124;2023-03-23T04:01:16;5.90;99.90
10722;DHT22;5412;59.450;18.124;2023-03-23T04:03:42;5.80;99.90
10722;DHT22;5412;59.450;18.124;2023-03-23T04:06:08;5.70;99.90
10722;DHT22;5412;59.450;18.124;2023-03-23T04:08:35;5.70;99.90
10722;DHT22;5412;59.450;18.124;2023-03-23T04:11:03;5.70;99.90
10722;DHT22;5412;59.450;18.124;2023-03-23T04:13:30;5.80;99.90
10722;DHT22;5412;59.450;18.124;2023-03-23T04:15:56;5.80;99.90
10722;DHT22;5412;59.450;18.124;2023-03-23T04:18:22;5.70;99.90
10722;DHT22;5412;59.450;18.124;2023-03-23T04:20:49;5.70;99.90
10722;DHT22;5412;59.450;18.124;2023-03-23T04:23:17;5.70;99.90
10722;DHT22;5412;59.450;18.124;2023-03-23T04:25:54;5.70;99.90
10722;DHT22;5412;59.450;18.124;2023-03-23T04:28:25;5.60;99.90
10722;DHT22;5412;59.450;18.124;2023-03-23T04:30:53;5.60;99.90
10722;DHT22;5412;59.450;18.124;2023-03-23T04:33:24;5.60;99.90
10722;DHT22;5412;59.450;18.124;2023-03-23T04:35:55;5.60;99.90
10722;DHT22;5412;59.450;18.124;2023-03-23T04:38:23;5.60;99.90
10722;DHT22;5412;59.450;18.124;2023-03-23T04:40:51;5.60;99.90
10722;DHT22;5412;59.450;18.124;2023-03-23T04:43:18;5.60;99.90
10722;DHT22;5412;59.450;18.124;2023-03-23T04:45:56;5.60;99.90
10722;DHT22;5412;59.450;18.124;2023-03-23T04:48:27;5.60;99.90
10722;DHT22;5412;59.450;18.124;2023-03-23T04:50:53;5.60;99.90
10722;DHT22;5412;59.450;18.124;2023-03-23T04:53:20;5.70;99.90
10722;DHT22;5412;59.450;18.124;2023-03-23T04:55:47;5.70;99.90
10722;DHT22;5412;59.450;18.124;2023-03-23T04:58:13;5.70;99.90
10722;DHT22;5412;59.450;18.124;2023-03-23T05:00:40;5.80;99.90
10722;DHT22;5412;59.450;18.124;2023-03-23T05:03:12;5.80;99.90
10722;DHT22;5412;59.450;18.124;2023-03-23T05:05:42;5.70;99.90
10722;DHT22;5412;59.450;18.124;2023-03-23T05:08:08;5.80;99.90
10722;DHT22;5412;59.450;18.124;2023-03-23T05:10:33;5.80;99.90
10722;DHT22;5412;59.450;18.124;2023-03-23T05:12:59;5.70;99.90
10722;DHT22;5412;59.450;18.124;2023-03-23T05:15:25;5.70;99.90
10722;DHT22;5412;59.450;18.124;2023-03-23T05:17:53;5.70;99.90
10722;DHT22;5412;59.450;18.124;2023-03-23T05:20:21;5.70;99.90
10722;DHT22;5412;59.450;18.124;2023-03-23T05:22:47;5.70;99.90
10722;DHT22;5412;59.450;18.124;2023-03-23T05:25:15;5.60;99.90
10722;DHT22;5412;59.450;18.124;2023-03-23T05:27:44;5.70;99.90
10722;DHT22;5412;59.450;18.124;2023-03-23T05:30:15;5.70;99.90
10722;DHT22;5412;59.450;18.124;2023-03-23T05:32:43;5.80;99.90
10722;DHT22;5412;59.450;18.124;2023-03-23T05:35:11;5.80;99.90
10722;DHT22;5412;59.450;18.124;2023-03-23T05:37:37;5.80;99.90
10722;DHT22;5412;59.450;18.124;2023-03-23T05:40:05;5.80;99.90
10722;DHT22;5412;59.450;18.124;2023-03-23T05:42:35;5.80;99.90
10722;DHT22;5412;59.450;18.124;2023-03-23T05:45:03;5.80;99.90
10722;DHT22;5412;59.450;18.124;2023-03-23T05:47:29;5.80;99.90
10722;DHT22;5412;59.450;18.124;2023-03-23T05:49:56;5.90;99.90
10722;DHT22;5412;59.450;18.124;2023-03-23T05:52:22;5.90;99.90
10722;DHT22;5412;59.450;18.124;2023-03-23T05:54:50;5.90;99.90
10722;DHT22;5412;59.450;18.124;2023-03-23T05:57:16;6.10;99.90
10722;DHT22;5412;59.450;18.124;2023-03-23T05:59:43;6.10;99.90
10722;DHT22;5412;59.450;18.124;2023-03-23T06:02:09;6.10;99.90
10722;DHT22;5412;59.450;18.124;2023-03-23T06:04:35;6.10;99.90
10722;DHT22;5412;59.450;18.124;2023-03-23T06:07:04;6.10;99.90
10722;DHT22;5412;59.450;18.124;2023-03-23T06:09:29;6.20;99.90
10722;DHT22;5412;59.450;18.124;2023-03-23T06:11:56;6.10;99.90
10722;DHT22;5412;59.450;18.124;2023-03-23T06:14:22;6.20;99.90
10722;DHT22;5412;59.450;18.124;2023-03-23T06:16:48;6.10;99.90
10722;DHT22;5412;59.450;18.124;2023-03-23T06:19:14;6.20;99.90
10722;DHT22;5412;59.450;18.124;2023-03-23T06:21:41;6.20;99.90
10722;DHT22;5412;59.450;18.124;2023-03-23T06:24:08;6.30;99.90
10722;DHT22;5412;59.450;18.124;2023-03-23T06:26:36;6.40;99.90
10722;DHT22;5412;59.450;18.124;2023-03-23T06:29:04;6.40;99.90
10722;DHT22;5412;59.450;18.124;2023-03-23T06:31:49;6.40;99.90
10722;DHT22;5412;59.450;18.124;2023-03-23T06:34:16;6.40;99.90
10722;DHT22;5412;59.450;18.124;2023-03-23T06:36:42;6.50;99.90
10722;DHT22;5412;59.450;18.124;2023-03-23T06:39:10;6.50;99.90
10722;DHT22;5412;59.450;18.124;2023-03-23T06:41:36;6.60;99.90
10722;DHT22;5412;59.450;18.124;2023-03-23T06:44:02;6.70;99.90
10722;DHT22;5412;59.450;18.124;2023-03-23T06:46:28;6.80;99.90
10722;DHT22;5412;59.450;18.124;2023-03-23T06:48:54;6.80;99.90
10722;DHT22;5412;59.450;18.124;2023-03-23T06:51:20;6.80;99.90
10722;DHT22;5412;59.450;18.124;2023-03-23T06:53:47;7.00;99.90
10722;DHT22;5412;59.450;18.124;2023-03-23T06:56:13;7.00;99.90
10722;DHT22;5412;59.450;18.124;2023-03-23T06:58:39;7.00;99.90
10722;DHT22;5412;59.450;18.124;2023-03-23T07:01:07;7.00;99.90
10722;DHT22;5412;59.450;18.124;2023-03-23T07:03:34;7.20;99.90
10722;DHT22;5412;59.450;18.124;2023-03-23T07:06:00;7.20;99.90
10722;DHT22;5412;59.450;18.124;2023-03-23T07:08:27;7.20;99.90
10722;DHT22;5412;59.450;18.124;2023-03-23T07:10:53;7.30;99.90
10722;DHT22;5412;59.450;18.124;2023-03-23T07:13:20;7.40;99.90
10722;DHT22;5412;59.450;18.124;2023-03-23T07:15:46;7.40;99.90
10722;DHT22;5412;59.450;18.124;2023-03-23T07:18:12;7.40;99.90
10722;DHT22;5412;59.450;18.124;2023-03-23T07:20:38;7.30;99.90
10722;DHT22;5412;59.450;18.124;2023-03-23T07:23:04;7.40;99.90
10722;DHT22;5412;59.450;18.124;2023-03-23T07:25:34;7.40;99.90
10722;DHT22;5412;59.450;18.124;2023-03-23T07:28:00;7.40;99.90
10722;DHT22;5412;59.450;18.124;2023-03-23T07:30:27;7.50;99.90
10722;DHT22;5412;59.450;18.124;2023-03-23T07:32:55;7.70;99.90
10722;DHT22;5412;59.450;18.124;2023-03-23T07:35:21;7.50;99.90
10722;DHT22;5412;59.450;18.124;2023-03-23T07:37:47;7.50;99.90
10722;DHT22;5412;59.450;18.124;2023-03-23T07:40:15;7.50;99.90
10722;DHT22;5412;59.450;18.124;2023-03-23T07:42:45;7.60;99.90
10722;DHT22;5412;59.450;18.124;2023-03-23T07:45:13;7.70;99.90
10722;DHT22;5412;59.450;18.124;2023-03-23T07:47:39;7.70;99.90
10722;DHT22;5412;59.450;18.124;2023-03-23T07:50:06;7.60;99.90
10722;DHT22;5412;59.450;18.124;2023-03-23T07:52:33;7.60;99.90
10722;DHT22;5412;59.450;18.124;2023-03-23T07:55:00;7.70;99.90
10722;DHT22;5412;59.450;18.124;2023-03-23T07:57:29;7.90;99.90
10722;DHT22;5412;59.450;18.124;2023-03-23T07:59:55;8.10;99.90
10722;DHT22;5412;59.450;18.124;2023-03-23T08:02:22;7.90;99.90
10722;DHT22;5412;59.450;18.124;2023-03-23T08:04:49;8.00;99.90
10722;DHT22;5412;59.450;18.124;2023-03-23T08:07:15;8.10;99.90
10722;DHT22;5412;59.450;18.124;2023-03-23T08:09:46;8.00;99.90
10722;DHT22;5412;59.450;18.124;2023-03-23T08:12:13;8.10;99.90
10722;DHT22;5412;59.450;18.124;2023-03-23T08:14:39;8.10;99.90
10722;DHT22;5412;59.450;18.124;2023-03-23T08:17:07;8.10;99.90
10722;DHT22;5412;59.450;18.124;2023-03-23T08:19:34;8.20;99.90
10722;DHT22;5412;59.450;18.124;2023-03-23T08:22:03;8.30;99.90
10722;DHT22;5412;59.450;18.124;2023-03-23T08:24:30;8.20;99.90
10722;DHT22;5412;59.450;18.124;2023-03-23T08:26:56;8.40;99.90
10722;DHT22;5412;59.450;18.124;2023-03-23T08:29:22;8.60;99.90
10722;DHT22;5412;59.450;18.124;2023-03-23T08:31:47;8.80;99.90
10722;DHT22;5412;59.450;18.124;2023-03-23T08:34:13;8.70;99.90
10722;DHT22;5412;59.450;18.124;2023-03-23T08:36:41;8.60;99.90
10722;DHT22;5412;59.450;18.124;2023-03-23T08:39:09;8.60;99.90
10722;DHT22;5412;59.450;18.124;2023-03-23T08:41:35;8.50;99.90
10722;DHT22;5412;59.450;18.124;2023-03-23T08:44:01;8.70;99.90
10722;DHT22;5412;59.450;18.124;2023-03-23T08:46:28;8.70;99.90
10722;DHT22;5412;59.450;18.124;2023-03-23T08:48:54;8.70;99.90
10722;DHT22;5412;59.450;18.124;2023-03-23T08:51:20;8.90;99.90
10722;DHT22;5412;59.450;18.124;2023-03-23T08:53:47;9.10;99.90
10722;DHT22;5412;59.450;18.124;2023-03-23T08:56:13;9.20;99.90
10722;DHT22;5412;59.450;18.124;2023-03-23T08:58:39;9.20;99.90
10722;DHT22;5412;59.450;18.124;2023-03-23T09:01:06;9.20;99.90
10722;DHT22;5412;59.450;18.124;2023-03-23T09:03:34;9.20;99.90
10722;DHT22;5412;59.450;18.124;2023-03-23T09:06:05;9.40;99.90
10722;DHT22;5412;59.450;18.124;2023-03-23T09:08:32;9.30;99.90
10722;DHT22;5412;59.450;18.124;2023-03-23T09:11:03;9.40;99.90
10722;DHT22;5412;59.450;18.124;2023-03-23T09:13:29;9.50;99.90
10722;DHT22;5412;59.450;18.124;2023-03-23T09:15:55;9.60;99.90
10722;DHT22;5412;59.450;18.124;2023-03-23T09:18:21;9.60;99.90
10722;DHT22;5412;59.450;18.124;2023-03-23T09:20:49;9.70;99.90
10722;DHT22;5412;59.450;18.124;2023-03-23T09:23:15;9.80;99.90
10722;DHT22;5412;59.450;18.124;2023-03-23T09:25:41;9.80;99.90
10722;DHT22;5412;59.450;18.124;2023-03-23T09:28:08;9.90;99.90
10722;DHT22;5412;59.450;18.124;2023-03-23T09:30:36;10.00;99.90
10722;DHT22;5412;59.450;18.124;2023-03-23T09:33:04;10.00;99.90
10722;DHT22;5412;59.450;18.124;2023-03-23T09:35:32;10.00;99.90
10722;DHT22;5412;59.450;18.124;2023-03-23T09:38:00;10.10;99.90
10722;DHT22;5412;59.450;18.124;2023-03-23T09:45:58;10.30;99.90
10722;DHT22;5412;59.450;18.124;2023-03-23T09:48:32;10.20;99.90
10722;DHT22;5412;59.450;18.124;2023-03-23T09:53:47;10.60;99.90
10722;DHT22;5412;59.450;18.124;2023-03-23T09:56:15;10.60;99.90
10722;DHT22;5412;59.450;18.124;2023-03-23T09:58:58;10.50;99.90
10722;DHT22;5412;59.450;18.124;2023-03-23T10:01:39;10.50;99.90
10722;DHT22;5412;59.450;18.124;2023-03-23T10:04:43;10.60;99.90
10722;DHT22;5412;59.450;18.124;2023-03-23T10:07:16;10.70;99.90
10722;DHT22;5412;59.450;18.124;2023-03-23T10:09:45;10.90;99.90
10722;DHT22;5412;59.450;18.124;2023-03-23T10:12:29;11.10;99.90
10722;DHT22;5412;59.450;18.124;2023-03-23T10:23:37;11.10;99.90
10722;DHT22;5412;59.450;18.124;2023-03-23T10:25:37;11.00;99.90
10722;DHT22;5412;59.450;18.124;2023-03-23T10:28:32;11.10;99.90
10722;DHT22;5412;59.450;18.124;2023-03-23T10:30:59;11.00;99.90
10722;DHT22;5412;59.450;18.124;2023-03-23T10:33:29;10.90;99.90
10722;DHT22;5412;59.450;18.124;2023-03-23T10:38:39;11.10;99.90
10722;DHT22;5412;59.450;18.124;2023-03-23T10:41:15;11.00;99.90
10722;DHT22;5412;59.450;18.124;2023-03-23T10:43:42;11.10;99.90
10722;DHT22;5412;59.450;18.124;2023-03-23T10:48:58;11.20;99.90
10722;DHT22;5412;59.450;18.124;2023-03-23T10:51:33;11.10;99.90
10722;DHT22;5412;59.450;18.124;2023-03-23T10:54:02;11.20;99.90
10722;DHT22;5412;59.450;18.124;2023-03-23T10:56:35;11.20;99.90
10722;DHT22;5412;59.450;18.124;2023-03-23T10:59:20;11.40;99.90
10722;DHT22;5412;59.450;18.124;2023-03-23T11:01:50;11.50;99.90
10722;DHT22;5412;59.450;18.124;2023-03-23T11:04:17;11.40;99.90
10722;DHT22;5412;59.450;18.124;2023-03-23T11:06:46;11.50;99.90
10722;DHT22;5412;59.450;18.124;2023-03-23T11:09:21;11.40;99.90
10722;DHT22;5412;59.450;18.124;2023-03-23T11:11:53;11.40;99.90
10722;DHT22;5412;59.450;18.124;2023-03-23T11:16:54;11.50;99.90
10722;DHT22;5412;59.450;18.124;2023-03-23T11:19:27;11.60;99.90
10722;DHT22;5412;59.450;18.124;2023-03-23T11:21:56;11.60;99.90
10722;DHT22;5412;59.450;18.124;2023-03-23T11:24:28;11.70;99.90
10722;DHT22;5412;59.450;18.124;2023-03-23T11:26:57;11.90;99.90
10722;DHT22;5412;59.450;18.124;2023-03-23T11:29:25;11.80;99.90
10722;DHT22;5412;59.450;18.124;2023-03-23T11:34:56;11.60;99.90
10722;DHT22;5412;59.450;18.124;2023-03-23T11:37:32;11.70;99.90
10722;DHT22;5412;59.450;18.124;2023-03-23T11:42:46;11.90;99.90
10722;DHT22;5412;59.450;18.124;2023-03-23T11:48:33;11.90;99.90
10722;DHT22;5412;59.450;18.124;2023-03-23T11:51:15;11.90;99.90
10722;DHT22;5412;59.450;18.124;2023-03-23T11:54:00;11.70;99.90
10722;DHT22;5412;59.450;18.124;2023-03-23T11:56:36;11.90;99.90
10722;DHT22;5412;59.450;18.124;2023-03-23T11:59:08;11.90;99.90
10722;DHT22;5412;59.450;18.124;2023-03-23T12:10:41;12.00;99.90
10722;DHT22;5412;59.450;18.124;2023-03-23T12:21:38;12.00;99.90
10722;DHT22;5412;59.450;18.124;2023-03-23T12:27:24;12.20;99.90
10722;DHT22;5412;59.450;18.124;2023-03-23T12:32:31;12.30;99.90
10722;DHT22;5412;59.450;18.124;2023-03-23T12:35:34;12.20;99.90
10722;DHT22;5412;59.450;18.124;2023-03-23T12:41:15;12.40;99.90
10722;DHT22;5412;59.450;18.124;2023-03-23T12:52:21;12.50;99.90
10722;DHT22;5412;59.450;18.124;2023-03-23T12:57:57;12.60;99.90
10722;DHT22;5412;59.450;18.124;2023-03-23T13:00:46;12.60;99.90
10722;DHT22;5412;59.450;18.124;2023-03-23T13:08:58;12.70;99.90
10722;DHT22;5412;59.450;18.124;2023-03-23T13:11:35;12.60;99.90
10722;DHT22;5412;59.450;18.124;2023-03-23T13:20:29;12.70;99.90
10722;DHT22;5412;59.450;18.124;2023-03-23T13:23:12;12.80;99.90
10722;DHT22;5412;59.450;18.124;2023-03-23T13:29:01;13.20;99.90
10722;DHT22;5412;59.450;18.124;2023-03-23T13:31:32;13.20;99.90
10722;DHT22;5412;59.450;18.124;2023-03-23T13:34:03;13.10;99.90
10722;DHT22;5412;59.450;18.124;2023-03-23T13:38:59;13.30;99.90
10722;DHT22;5412;59.450;18.124;2023-03-23T13:41:25;13.30;99.90
10722;DHT22;5412;59.450;18.124;2023-03-23T13:43:54;13.60;99.90
10722;DHT22;5412;59.450;18.124;2023-03-23T13:46:31;14.20;99.90
10722;DHT22;5412;59.450;18.124;2023-03-23T13:49:16;14.90;99.90
10722;DHT22;5412;59.450;18.124;2023-03-23T13:54:38;15.90;99.90
10722;DHT22;5412;59.450;18.124;2023-03-23T13:59:56;16.40;99.10
10722;DHT22;5412;59.450;18.124;2023-03-23T14:02:40;16.40;98.60
10722;DHT22;5412;59.450;18.124;2023-03-23T14:07:57;15.90;99.00
10722;DHT22;5412;59.450;18.124;2023-03-23T14:11:11;15.70;98.70
10722;DHT22;5412;59.450;18.124;2023-03-23T14:13:23;16.20;97.90
10722;DHT22;5412;59.450;18.124;2023-03-23T14:15:58;17.20;96.50
10722;DHT22;5412;59.450;18.124;2023-03-23T14:18:30;17.00;94.60
10722;DHT22;5412;59.450;18.124;2023-03-23T14:20:57;17.40;93.30
10722;DHT22;5412;59.450;18.124;2023-03-23T14:23:23;17.40;92.70
10722;DHT22;5412;59.450;18.124;2023-03-23T14:26:00;17.80;91.80
10722;DHT22;5412;59.450;18.124;2023-03-23T14:28:40;19.00;89.20
10722;DHT22;5412;59.450;18.124;2023-03-23T14:31:26;19.80;84.50
10722;DHT22;5412;59.450;18.124;2023-03-23T14:33:55;20.90;79.20
10722;DHT22;5412;59.450;18.124;2023-03-23T14:36:26;21.00;73.80
10722;DHT22;5412;59.450;18.124;2023-03-23T14:39:17;21.80;70.70
10722;DHT22;5412;59.450;18.124;2023-03-23T14:41:45;22.10;67.90
10722;DHT22;5412;59.450;18.124;2023-03-23T14:44:15;22.50;64.60
10722;DHT22;5412;59.450;18.124;2023-03-23T14:46:43;22.30;63.30
10722;DHT22;5412;59.450;18.124;2023-03-23T14:49:18;22.40;62.40
10722;DHT22;5412;59.450;18.124;2023-03-23T14:51:54;23.20;61.20
10722;DHT22;5412;59.450;18.124;2023-03-23T14:54:26;23.20;59.00
10722;DHT22;5412;59.450;18.124;2023-03-23T14:56:53;23.60;58.60
10722;DHT22;5412;59.450;18.124;2023-03-23T14:59:19;23.90;58.30
10722;DHT22;5412;59.450;18.124;2023-03-23T15:01:47;24.10;56.90
10722;DHT22;5412;59.450;18.124;2023-03-23T15:04:21;24.10;56.70
10722;DHT22;5412;59.450;18.124;2023-03-23T15:06:55;24.20;55.80
10722;DHT22;5412;59.450;18.124;2023-03-23T15:09:23;24.20;55.50
10722;DHT22;5412;59.450;18.124;2023-03-23T15:12:03;24.30;55.00
10722;DHT22;5412;59.450;18.124;2023-03-23T15:14:41;24.40;54.40
10722;DHT22;5412;59.450;18.124;2023-03-23T15:17:27;24.40;54.00
10722;DHT22;5412;59.450;18.124;2023-03-23T15:19:55;24.30;54.10
10722;DHT22;5412;59.450;18.124;2023-03-23T15:22:29;24.30;53.80
10722;DHT22;5412;59.450;18.124;2023-03-23T15:25:10;24.40;53.70
10722;DHT22;5412;59.450;18.124;2023-03-23T15:27:42;24.30;53.00
10722;DHT22;5412;59.450;18.124;2023-03-23T15:30:28;23.20;53.50
10722;DHT22;5412;59.450;18.124;2023-03-23T15:33:08;21.50;55.30
10722;DHT22;5412;59.450;18.124;2023-03-23T15:35:40;20.10;58.40
10722;DHT22;5412;59.450;18.124;2023-03-23T15:38:31;19.20;59.70
10722;DHT22;5412;59.450;18.124;2023-03-23T15:41:01;18.30;62.80
10722;DHT22;5412;59.450;18.124;2023-03-23T15:43:32;17.70;64.20
10722;DHT22;5412;59.450;18.124;2023-03-23T15:46:04;17.30;66.20
10722;DHT22;5412;59.450;18.124;2023-03-23T15:51:27;18.20;65.50
10722;DHT22;5412;59.450;18.124;2023-03-23T15:53:55;18.00;65.70
10722;DHT22;5412;59.450;18.124;2023-03-23T15:56:21;17.40;67.00
10722;DHT22;5412;59.450;18.124;2023-03-23T15:58:48;16.70;68.90
10722;DHT22;5412;59.450;18.124;2023-03-23T16:01:22;16.20;71.40
10722;DHT22;5412;59.450;18.124;2023-03-23T16:04:05;15.80;73.50
10722;DHT22;5412;59.450;18.124;2023-03-23T16:06:33;15.30;75.80
10722;DHT22;5412;59.450;18.124;2023-03-23T16:08:59;15.10;77.70
10722;DHT22;5412;59.450;18.124;2023-03-23T16:11:29;15.00;78.70
10722;DHT22;5412;59.450;18.124;2023-03-23T16:13:56;15.10;80.30
10722;DHT22;5412;59.450;18.124;2023-03-23T16:16:27;14.80;81.70
10722;DHT22;5412;59.450;18.124;2023-03-23T16:18:53;14.60;82.80
10722;DHT22;5412;59.450;18.124;2023-03-23T16:21:19;14.10;86.60
10722;DHT22;5412;59.450;18.124;2023-03-23T16:23:45;13.70;91.10
10722;DHT22;5412;59.450;18.124;2023-03-23T16:26:12;13.30;94.40
10722;DHT22;5412;59.450;18.124;2023-03-23T16:28:39;12.90;97.50
10722;DHT22;5412;59.450;18.124;2023-03-23T16:31:05;12.70;99.90
10722;DHT22;5412;59.450;18.124;2023-03-23T16:33:31;12.50;99.90
10722;DHT22;5412;59.450;18.124;2023-03-23T16:35:57;12.30;99.90
10722;DHT22;5412;59.450;18.124;2023-03-23T16:38:23;12.10;99.90
10722;DHT22;5412;59.450;18.124;2023-03-23T16:40:50;11.90;99.90
10722;DHT22;5412;59.450;18.124;2023-03-23T16:43:16;11.80;99.90
10722;DHT22;5412;59.450;18.124;2023-03-23T16:45:43;11.70;99.90
10722;DHT22;5412;59.450;18.124;2023-03-23T16:48:10;11.70;99.90
10722;DHT22;5412;59.450;18.124;2023-03-23T16:50:37;11.50;99.90
10722;DHT22;5412;59.450;18.124;2023-03-23T16:53:04;11.30;99.90
10722;DHT22;5412;59.450;18.124;2023-03-23T16:55:30;11.20;99.90
10722;DHT22;5412;59.450;18.124;2023-03-23T16:57:56;11.20;99.90
10722;DHT22;5412;59.450;18.124;2023-03-23T17:00:23;11.00;99.90
10722;DHT22;5412;59.450;18.124;2023-03-23T17:02:51;10.90;99.90
10722;DHT22;5412;59.450;18.124;2023-03-23T17:05:18;10.90;99.90
10722;DHT22;5412;59.450;18.124;2023-03-23T17:07:45;10.60;99.90
10722;DHT22;5412;59.450;18.124;2023-03-23T17:10:11;10.20;99.90
10722;DHT22;5412;59.450;18.124;2023-03-23T17:12:38;10.20;99.90
10722;DHT22;5412;59.450;18.124;2023-03-23T17:15:05;10.10;99.90
10722;DHT22;5412;59.450;18.124;2023-03-23T17:17:31;10.00;99.90
10722;DHT22;5412;59.450;18.124;2023-03-23T17:19:57;10.00;99.90
10722;DHT22;5412;59.450;18.124;2023-03-23T17:22:23;9.90;99.90
10722;DHT22;5412;59.450;18.124;2023-03-23T17:24:50;9.70;99.90
10722;DHT22;5412;59.450;18.124;2023-03-23T17:27:17;9.70;99.90
10722;DHT22;5412;59.450;18.124;2023-03-23T17:29:44;9.80;99.90
10722;DHT22;5412;59.450;18.124;2023-03-23T17:32:10;9.80;99.90
10722;DHT22;5412;59.450;18.124;2023-03-23T17:34:37;9.70;99.90
10722;DHT22;5412;59.450;18.124;2023-03-23T17:37:03;9.70;99.90
10722;DHT22;5412;59.450;18.124;2023-03-23T17:39:30;9.70;99.90
10722;DHT22;5412;59.450;18.124;2023-03-23T17:41:57;9.70;99.90
10722;DHT22;5412;59.450;18.124;2023-03-23T17:44:23;9.70;99.90
10722;DHT22;5412;59.450;18.124;2023-03-23T17:46:50;9.70;99.90
10722;DHT22;5412;59.450;18.124;2023-03-23T17:49:16;9.70;99.90
10722;DHT22;5412;59.450;18.124;2023-03-23T17:51:42;9.70;99.90
10722;DHT22;5412;59.450;18.124;2023-03-23T17:54:08;9.70;99.90
10722;DHT22;5412;59.450;18.124;2023-03-23T17:56:34;9.60;99.90
10722;DHT22;5412;59.450;18.124;2023-03-23T17:59:00;9.60;99.90